TZDO2: Arkansas Rv at SH 344 nr Tulsa, OK

                                SHEF ID:       TZDO2     Arkansas Rv at SH 344 nr Tulsa, OK
STATION TYPE:

STAGE RIV-FLOW BAT-LOAD
ft cfs volt
Ccp-Rev Ccp-Rev Ccp-Rev
(America/Chicago)
04/28 00:00 10.30 5773 12.70
04/28 01:00 10.29 5735 12.67
04/28 02:00 10.26 5622 12.65
04/28 03:00 10.22 5473 12.63
04/28 04:00 10.22 5473 12.62
04/28 05:00 10.20 5399 12.60
04/28 06:00 10.22 5473 12.57
04/28 07:00 10.22 5473 12.57
04/28 08:00 10.19 5363 12.61
04/28 09:00 10.25 5584 12.77
04/28 10:00 10.23 5510 13.05
04/28 11:00 10.26 5622 13.11
04/28 12:00 10.47 6445 13.18
04/28 13:00 10.74 7576 13.34
04/28 14:00 11.01 8712 ----
04/28 15:00 11.17 9383 13.09
04/28 16:00 11.21 9552 13.02
04/28 17:00 11.11 9132 12.98
04/28 18:00 10.92 8333 12.96
04/28 19:00 10.74 7576 12.90
04/28 20:00 10.62 7073 12.94
04/28 21:00 10.53 6693 12.77
04/28 22:00 10.48 6486 12.73
04/28 23:00 ---- ---- ----
Data processed at Wed 29Apr2026 04:51 GMT

NOTICE: If you are parsing this page

Please convert to using our Data API. Starting early 2026 we will be migrating to: https://water.usace.army.mil with modern pages rendered in JavaScript. When this migration completes you will no longer be able to scrape this page! CWMSDataAPI (CDA)

Timeseries IDs (TSIDs)

TSIDs used from left to right in the data table
GILC.Stage.Inst.1Hour.0.Ccp-Rev
GILC.Flow.Inst.1Hour.0.Ccp-Rev
GILC.Volt-Battery Load.Inst.1Hour.0.Ccp-Rev

                            

All information presented herein is the property of the government of the United States of America and may be revised or deleted at any time without prior notice. Dissemination of this information without the expressed written consent of the Public Affairs Office, Tulsa District U.S. Army Corps of Engineers is strictly prohibited. These data are gathered electronically and, as presented, have NOT undergone any form of quality control. These data are NOT guaranteed to be valid or correct.